Terminal Aerodrome Forecast
Issued by NWS

Home | Current Version | Previous Version | Graphics & Text | Print | Product List | Glossary On
Versions: 1 2 3 4 5 6 7 8 9 10 11 12 13 14 15 16 17 18 19 20 21 22 23 24 25 26
903
FTUS45 KGGW 192320
TAFOLF
TAF
KOLF 192320Z 2000/2024 VRB05KT P6SM BKN160
     FM201100 26011KT P6SM BKN140
     FM201400 26013KT P6SM BKN150 WS020/27045KT
     FM201600 27017KT P6SM BKN130
     FM201900 31020G30KT P6SM BKN080=

USA.gov is the U.S. government's official web portal to all federal, state and local government web resources and services.